createdAt,value
2019-02-11T00:00:19.091Z,4.73
2019-02-11T00:01:19.273Z,4.66
2019-02-11T00:02:19.455Z,4.70
2019-02-11T00:03:19.631Z,4.54
2019-02-11T00:04:19.811Z,4.58
2019-02-11T00:05:19.992Z,4.70
2019-02-11T00:06:20.177Z,4.63
2019-02-11T00:07:20.362Z,4.65
2019-02-11T00:08:20.543Z,4.58
2019-02-11T00:09:20.724Z,4.62
2019-02-11T00:10:20.915Z,4.55
2019-02-11T00:11:21.102Z,4.47
2019-02-11T00:12:21.291Z,4.54
2019-02-11T00:13:21.477Z,4.48
2019-02-11T00:14:21.656Z,4.44
2019-02-11T00:15:21.892Z,4.51
2019-02-11T00:16:22.023Z,4.34
2019-02-11T00:17:22.222Z,4.42
2019-02-11T00:18:22.445Z,4.42
2019-02-11T00:19:22.623Z,4.50
2019-02-11T00:20:22.806Z,4.42
2019-02-11T00:21:22.994Z,4.40
2019-02-11T00:22:23.162Z,4.40
2019-02-11T00:23:23.350Z,4.27
2019-02-11T00:24:23.527Z,4.24
2019-02-11T00:25:23.725Z,4.23
2019-02-11T00:26:23.902Z,4.23
2019-02-11T00:27:24.122Z,4.27
2019-02-11T00:28:24.259Z,4.23
2019-02-11T00:29:24.431Z,4.22
2019-02-11T00:30:24.611Z,4.24
2019-02-11T00:31:24.849Z,4.16
2019-02-11T00:32:24.969Z,4.24
2019-02-11T00:33:25.153Z,4.18
2019-02-11T00:34:25.338Z,4.26
2019-02-11T00:35:25.515Z,4.22
2019-02-11T00:36:25.710Z,4.18
2019-02-11T00:37:25.889Z,4.12
2019-02-11T00:38:26.066Z,4.14
2019-02-11T00:39:26.251Z,4.14
2019-02-11T00:40:26.424Z,4.15
2019-02-11T00:41:26.615Z,4.18
2019-02-11T00:42:26.793Z,4.15
2019-02-11T00:43:26.972Z,4.06
2019-02-11T00:44:27.213Z,4.15
2019-02-11T00:45:27.333Z,4.15
2019-02-11T00:46:27.523Z,4.22
2019-02-11T00:47:27.696Z,4.11
2019-02-11T00:48:27.870Z,4.12
2019-02-11T00:49:28.064Z,4.08
2019-02-11T00:50:28.239Z,4.20
2019-02-11T00:51:28.425Z,4.06
2019-02-11T00:52:28.603Z,4.16
2019-02-11T00:53:28.783Z,4.15
2019-02-11T00:54:28.958Z,4.16
2019-02-11T00:55:29.140Z,4.16
2019-02-11T00:56:29.317Z,4.11
2019-02-11T00:57:29.499Z,4.20
2019-02-11T00:58:29.672Z,4.16
2019-02-11T00:59:29.870Z,4.16
2019-02-11T01:00:30.098Z,4.05
2019-02-11T01:01:30.224Z,4.14
2019-02-11T01:02:30.404Z,4.06
2019-02-11T01:03:30.584Z,4.11
2019-02-11T01:04:30.752Z,4.12
2019-02-11T01:05:30.928Z,4.09
2019-02-11T01:06:31.111Z,4.02
2019-02-11T01:07:31.288Z,3.96
2019-02-11T01:08:31.471Z,3.97
2019-02-11T01:09:31.652Z,4.06
2019-02-11T01:10:31.830Z,3.94
2019-02-11T01:11:32.004Z,4.02
2019-02-11T01:12:32.179Z,3.96
2019-02-11T01:13:32.362Z,3.96
2019-02-11T01:14:32.536Z,4.00
2019-02-11T01:15:32.721Z,3.94
2019-02-11T01:16:32.909Z,3.96
2019-02-11T01:17:33.087Z,3.91
2019-02-11T01:18:33.272Z,3.91
2019-02-11T01:19:33.445Z,3.90
2019-02-11T01:20:33.615Z,3.88
2019-02-11T01:21:33.817Z,3.86
2019-02-11T01:22:33.998Z,3.87
2019-02-11T01:23:34.179Z,3.86
2019-02-11T01:24:34.358Z,3.86
2019-02-11T01:25:34.540Z,3.93
2019-02-11T01:26:34.732Z,3.86
2019-02-11T01:27:34.929Z,3.94
2019-02-11T01:28:35.090Z,3.84
2019-02-11T01:29:35.270Z,3.84
2019-02-11T01:30:35.454Z,3.90
2019-02-11T01:31:35.632Z,3.93
2019-02-11T01:32:35.804Z,3.87
2019-02-11T01:33:35.985Z,3.84
2019-02-11T01:34:36.166Z,3.87
2019-02-11T01:35:36.342Z,3.84
2019-02-11T01:36:36.524Z,3.70
2019-02-11T01:37:36.702Z,3.88
2019-02-11T01:38:36.873Z,3.76
2019-02-11T01:39:37.053Z,3.83
2019-02-11T01:40:37.236Z,3.80
2019-02-11T01:41:37.423Z,3.68
2019-02-11T01:42:37.585Z,3.87
2019-02-11T01:43:37.771Z,3.75
2019-02-11T01:44:37.950Z,3.88
2019-02-11T01:45:38.140Z,3.72
2019-02-11T01:46:38.319Z,3.76
2019-02-11T01:47:38.508Z,3.79
2019-02-11T01:48:38.697Z,3.70
2019-02-11T01:49:38.867Z,3.83
2019-02-11T01:50:39.056Z,3.79
2019-02-11T01:51:39.233Z,3.80
2019-02-11T01:52:39.408Z,3.76
2019-02-11T01:53:39.593Z,3.86
2019-02-11T01:54:39.766Z,3.84
2019-02-11T01:55:39.947Z,3.84
2019-02-11T01:56:40.131Z,3.84
2019-02-11T01:57:40.305Z,3.86
2019-02-11T01:58:40.477Z,3.87
2019-02-11T01:59:40.674Z,3.79
2019-02-11T02:00:40.848Z,3.78
2019-02-11T02:01:41.069Z,3.78
2019-02-11T02:02:41.221Z,3.76
2019-02-11T02:03:41.404Z,3.76
2019-02-11T02:04:41.583Z,3.75
2019-02-11T02:05:41.762Z,3.69
2019-02-11T02:06:41.944Z,3.73
2019-02-11T02:07:42.127Z,3.72
2019-02-11T02:08:42.372Z,3.72
2019-02-11T02:09:42.427Z,3.78
2019-02-11T02:10:42.603Z,3.70
2019-02-11T02:11:42.792Z,3.68
2019-02-11T02:12:43.787Z,3.61
2019-02-11T02:13:44.909Z,3.68
2019-02-11T02:14:43.345Z,3.69
2019-02-11T02:15:43.524Z,3.68
2019-02-11T02:16:43.704Z,3.66
2019-02-11T02:17:43.886Z,3.62
2019-02-11T02:18:44.063Z,3.62
2019-02-11T02:19:44.260Z,3.65
2019-02-11T02:20:44.451Z,3.61
2019-02-11T02:21:44.605Z,3.61
2019-02-11T02:22:44.774Z,3.58
2019-02-11T02:23:44.957Z,3.52
2019-02-11T02:24:45.142Z,3.52
2019-02-11T02:25:45.324Z,3.50
2019-02-11T02:26:45.553Z,3.47
2019-02-11T02:27:45.682Z,3.66
2019-02-11T02:28:45.867Z,3.68
2019-02-11T02:29:46.041Z,3.61
2019-02-11T02:30:46.225Z,3.73
2019-02-11T02:31:46.416Z,3.70
2019-02-11T02:32:46.589Z,3.68
2019-02-11T02:33:46.769Z,3.61
2019-02-11T02:34:46.944Z,3.68
2019-02-11T02:35:47.133Z,3.60
2019-02-11T02:36:47.314Z,3.61
2019-02-11T02:37:47.487Z,3.68
2019-02-11T02:38:47.669Z,3.72
2019-02-11T02:39:47.851Z,3.69
2019-02-11T02:40:48.028Z,3.69
2019-02-11T02:41:48.210Z,3.69
2019-02-11T02:42:48.392Z,3.70
2019-02-11T02:43:55.129Z,3.83
2019-02-11T02:44:48.751Z,3.83
2019-02-11T02:45:48.932Z,3.79
2019-02-11T02:46:49.112Z,3.75
2019-02-11T02:47:49.289Z,3.83
2019-02-11T02:48:49.475Z,3.78
2019-02-11T02:49:49.660Z,3.78
2019-02-11T02:50:49.829Z,3.84
2019-02-11T02:51:50.011Z,3.80
2019-02-11T02:52:50.195Z,3.70
2019-02-11T02:53:50.374Z,3.75
2019-02-11T02:54:50.560Z,3.68
2019-02-11T02:55:50.742Z,3.76
2019-02-11T02:56:50.923Z,3.75
2019-02-11T02:57:51.101Z,3.78
2019-02-11T02:58:51.284Z,3.69
2019-02-11T02:59:51.462Z,3.88
2019-02-11T03:00:51.637Z,3.87
2019-02-11T03:01:51.823Z,3.70
2019-02-11T03:02:51.999Z,3.80
2019-02-11T03:03:52.193Z,3.83
2019-02-11T03:04:52.371Z,3.94
2019-02-11T03:05:53.102Z,3.93
2019-02-11T03:06:52.734Z,3.88
2019-02-11T03:07:52.912Z,4.02
2019-02-11T03:08:53.101Z,3.94
2019-02-11T03:09:53.272Z,4.04
2019-02-11T03:10:53.457Z,3.93
2019-02-11T03:11:53.658Z,3.93
2019-02-11T03:12:53.840Z,3.91
2019-02-11T03:13:54.025Z,3.97
2019-02-11T03:14:54.194Z,3.97
2019-02-11T03:15:54.379Z,3.93
2019-02-11T03:16:54.573Z,3.97
2019-02-11T03:17:54.747Z,4.02
2019-02-11T03:18:54.929Z,3.98
2019-02-11T03:19:55.111Z,4.02
2019-02-11T03:20:55.293Z,3.98
2019-02-11T03:21:55.469Z,4.02
2019-02-11T03:22:55.650Z,4.00
2019-02-11T03:23:55.835Z,3.98
2019-02-11T03:24:56.009Z,4.05
2019-02-11T03:25:56.201Z,4.02
2019-02-11T03:26:56.381Z,4.00
2019-02-11T03:27:56.568Z,4.02
2019-02-11T03:28:56.740Z,4.00
2019-02-11T03:29:56.918Z,3.94
2019-02-11T03:30:57.145Z,4.05
2019-02-11T03:31:59.846Z,4.05
2019-02-11T03:32:57.463Z,4.06
2019-02-11T03:33:57.646Z,4.02
2019-02-11T03:34:57.824Z,3.97
2019-02-11T03:35:58.002Z,3.96
2019-02-11T03:36:58.183Z,4.00
2019-02-11T03:37:58.367Z,4.11
2019-02-11T03:38:58.551Z,4.06
2019-02-11T03:39:58.729Z,4.06
2019-02-11T03:40:58.913Z,4.11
2019-02-11T03:41:59.102Z,4.02
2019-02-11T03:42:59.281Z,4.08
2019-02-11T03:43:59.457Z,4.08
2019-02-11T03:44:59.644Z,4.05
2019-02-11T03:45:59.819Z,4.09
2019-02-11T03:47:00.002Z,4.15
2019-02-11T03:48:00.184Z,4.06
2019-02-11T03:49:00.361Z,4.06
2019-02-11T03:50:00.545Z,4.09
2019-02-11T03:51:00.722Z,4.05
2019-02-11T03:52:00.909Z,4.05
2019-02-11T03:53:01.081Z,4.08
2019-02-11T03:54:01.266Z,4.14
2019-02-11T03:55:01.457Z,4.09
2019-02-11T03:56:01.619Z,4.15
2019-02-11T03:57:01.817Z,4.14
2019-02-11T03:58:01.993Z,4.06
2019-02-11T03:59:02.174Z,4.05
2019-02-11T04:00:02.354Z,4.08
2019-02-11T04:01:02.600Z,4.08
2019-02-11T04:02:02.724Z,4.12
2019-02-11T04:03:02.910Z,4.05
2019-02-11T04:04:03.074Z,4.08
2019-02-11T04:05:03.264Z,4.08
2019-02-11T04:06:03.437Z,4.06
2019-02-11T04:07:03.619Z,4.06
2019-02-11T04:08:03.794Z,4.04
2019-02-11T04:09:03.985Z,4.14
2019-02-11T04:10:04.166Z,4.02
2019-02-11T04:11:04.337Z,4.06
2019-02-11T04:12:04.515Z,4.09
2019-02-11T04:13:04.703Z,4.06
2019-02-11T04:14:04.881Z,4.20
2019-02-11T04:15:05.062Z,3.98
2019-02-11T04:16:05.247Z,4.05
2019-02-11T04:17:05.423Z,4.14
2019-02-11T04:18:05.606Z,4.06
2019-02-11T04:19:05.786Z,4.12
2019-02-11T04:20:05.969Z,4.05
2019-02-11T04:21:06.159Z,4.09
2019-02-11T04:22:06.336Z,4.00
2019-02-11T04:23:06.513Z,4.06
2019-02-11T04:24:06.698Z,4.04
2019-02-11T04:25:06.892Z,4.00
2019-02-11T04:26:07.066Z,4.08
2019-02-11T04:27:07.245Z,4.05
2019-02-11T04:28:07.445Z,3.96
2019-02-11T04:29:07.613Z,4.06
2019-02-11T04:30:07.793Z,4.02
2019-02-11T04:31:07.977Z,4.06
2019-02-11T04:32:08.160Z,4.06
2019-02-11T04:33:08.349Z,4.12
2019-02-11T04:34:08.528Z,4.09
2019-02-11T04:35:08.713Z,4.08
2019-02-11T04:36:08.899Z,4.06
2019-02-11T04:37:09.080Z,4.16
2019-02-11T04:38:09.257Z,4.04
2019-02-11T04:39:09.434Z,4.08
2019-02-11T04:40:09.687Z,4.14
2019-02-11T04:41:09.761Z,4.16
2019-02-11T04:42:09.947Z,4.09
2019-02-11T04:43:10.128Z,4.22
2019-02-11T04:44:10.308Z,4.14
2019-02-11T04:45:10.484Z,4.08
2019-02-11T04:46:10.675Z,4.15
2019-02-11T04:47:10.859Z,4.11
2019-02-11T04:48:11.033Z,4.11
2019-02-11T04:49:11.222Z,4.05
2019-02-11T04:50:11.397Z,4.09
2019-02-11T04:51:11.585Z,4.09
2019-02-11T04:52:11.753Z,4.05
2019-02-11T04:53:11.935Z,4.11
2019-02-11T04:54:12.124Z,4.04
2019-02-11T04:55:12.305Z,4.09
2019-02-11T04:56:12.482Z,4.14
2019-02-11T04:57:12.669Z,4.12
2019-02-11T04:58:12.840Z,4.12
2019-02-11T04:59:13.033Z,4.12
2019-02-11T05:00:13.228Z,4.12
2019-02-11T05:01:13.398Z,4.11
2019-02-11T05:02:13.579Z,4.14
2019-02-11T05:03:13.755Z,4.14
2019-02-11T05:04:13.934Z,4.05
2019-02-11T05:05:14.121Z,4.15
2019-02-11T05:06:14.312Z,4.15
2019-02-11T05:07:14.519Z,4.12
2019-02-11T05:08:14.726Z,4.11
2019-02-11T05:09:14.913Z,4.12
2019-02-11T05:10:15.089Z,4.12
2019-02-11T05:11:15.258Z,4.15
2019-02-11T05:12:15.441Z,4.15
2019-02-11T05:13:15.616Z,4.16
2019-02-11T05:14:15.794Z,4.16
2019-02-11T05:15:15.979Z,4.20
2019-02-11T05:16:16.156Z,4.09
2019-02-11T05:17:16.340Z,4.11
2019-02-11T05:18:16.986Z,4.15
2019-02-11T05:19:16.694Z,4.22
2019-02-11T05:20:16.885Z,4.22
2019-02-11T05:21:17.050Z,4.23
2019-02-11T05:22:17.236Z,4.11
2019-02-11T05:23:17.429Z,4.18
2019-02-11T05:24:17.609Z,4.20
2019-02-11T05:25:17.796Z,4.23
2019-02-11T05:26:17.975Z,4.15
2019-02-11T05:27:18.154Z,4.15
2019-02-11T05:28:18.335Z,4.18
2019-02-11T05:29:18.516Z,4.24
2019-02-11T05:30:18.732Z,4.16
2019-02-11T05:31:18.900Z,4.12
2019-02-11T05:32:19.087Z,4.14
2019-02-11T05:33:19.280Z,4.11
2019-02-11T05:34:19.469Z,4.16
2019-02-11T05:35:19.645Z,4.18
2019-02-11T05:36:19.830Z,4.22
2019-02-11T05:37:20.007Z,4.15
2019-02-11T05:38:20.189Z,4.24
2019-02-11T05:39:20.373Z,4.22
2019-02-11T05:40:20.553Z,4.23
2019-02-11T05:41:20.740Z,4.26
2019-02-11T05:42:20.917Z,4.18
2019-02-11T05:43:21.093Z,4.24
2019-02-11T05:44:21.271Z,4.24
2019-02-11T05:45:21.447Z,4.23
2019-02-11T05:46:21.621Z,4.24
2019-02-11T05:47:21.794Z,4.18
2019-02-11T05:48:21.975Z,4.18
2019-02-11T05:49:22.166Z,4.18
2019-02-11T05:50:22.350Z,4.22
2019-02-11T05:51:22.523Z,4.14
2019-02-11T05:52:22.703Z,4.20
2019-02-11T05:53:22.886Z,4.32
2019-02-11T05:54:23.062Z,4.24
2019-02-11T05:55:23.979Z,4.22
2019-02-11T05:56:23.449Z,4.27
2019-02-11T05:57:23.627Z,4.27
2019-02-11T05:58:23.810Z,4.20
2019-02-11T05:59:23.990Z,4.22
2019-02-11T06:00:24.169Z,4.16
2019-02-11T06:01:24.349Z,4.27
2019-02-11T06:02:24.530Z,4.32
2019-02-11T06:03:24.717Z,4.33
2019-02-11T06:04:24.899Z,4.24
2019-02-11T06:05:25.095Z,4.27
2019-02-11T06:06:25.258Z,4.23
2019-02-11T06:07:25.436Z,4.23
2019-02-11T06:08:25.614Z,4.26
2019-02-11T06:09:25.795Z,4.27
2019-02-11T06:10:25.975Z,4.24
2019-02-11T06:11:26.158Z,4.22
2019-02-11T06:12:26.340Z,4.22
2019-02-11T06:13:26.513Z,4.24
2019-02-11T06:14:26.742Z,4.18
2019-02-11T06:15:26.946Z,4.26
2019-02-11T06:16:27.115Z,4.18
2019-02-11T06:17:27.317Z,4.22
2019-02-11T06:18:27.485Z,4.20
2019-02-11T06:19:27.684Z,4.20
2019-02-11T06:20:27.865Z,4.30
2019-02-11T06:21:28.040Z,4.26
2019-02-11T06:22:28.215Z,4.23
2019-02-11T06:23:29.697Z,4.23
2019-02-11T06:24:28.586Z,4.26
2019-02-11T06:25:28.789Z,4.26
2019-02-11T06:26:28.946Z,4.37
2019-02-11T06:27:29.135Z,4.37
2019-02-11T06:28:29.329Z,4.33
2019-02-11T06:29:29.513Z,4.34
2019-02-11T06:30:29.694Z,4.41
2019-02-11T06:31:29.900Z,4.40
2019-02-11T06:32:30.092Z,4.30
2019-02-11T06:33:30.253Z,4.29
2019-02-11T06:34:30.449Z,4.23
2019-02-11T06:35:30.609Z,4.33
2019-02-11T06:36:30.790Z,4.36
2019-02-11T06:37:30.974Z,4.27
2019-02-11T06:38:31.162Z,4.30
2019-02-11T06:39:31.347Z,4.23
2019-02-11T06:40:31.519Z,4.24
2019-02-11T06:41:31.707Z,4.33
2019-02-11T06:42:31.878Z,4.30
2019-02-11T06:43:32.088Z,4.36
2019-02-11T06:44:32.276Z,4.27
2019-02-11T06:45:32.476Z,4.32
2019-02-11T06:46:32.644Z,4.30
2019-02-11T06:47:32.832Z,4.29
2019-02-11T06:48:33.017Z,4.29
2019-02-11T06:49:33.202Z,4.26
2019-02-11T06:50:33.398Z,4.33
2019-02-11T06:51:33.554Z,4.29
2019-02-11T06:52:33.745Z,4.32
2019-02-11T06:53:33.925Z,4.20
2019-02-11T06:54:34.105Z,4.27
2019-02-11T06:55:34.289Z,4.32
2019-02-11T06:56:34.472Z,4.27
2019-02-11T06:57:34.663Z,4.24
2019-02-11T06:58:34.846Z,4.33
2019-02-11T06:59:35.038Z,4.27
2019-02-11T07:00:35.210Z,4.23
2019-02-11T07:01:35.405Z,4.37
2019-02-11T07:02:35.631Z,4.32
2019-02-11T07:03:35.846Z,4.30
2019-02-11T07:04:36.005Z,4.23
2019-02-11T07:05:36.195Z,4.27
2019-02-11T07:06:36.375Z,4.30
2019-02-11T07:07:36.794Z,4.33
2019-02-11T07:08:36.745Z,4.29
2019-02-11T07:09:36.930Z,4.33
2019-02-11T07:10:37.118Z,4.23
2019-02-11T07:11:37.291Z,4.23
2019-02-11T07:12:37.478Z,4.18
2019-02-11T07:13:37.657Z,4.22
2019-02-11T07:14:37.842Z,4.23
2019-02-11T07:15:38.030Z,4.32
2019-02-11T07:16:38.206Z,4.32
2019-02-11T07:17:38.394Z,4.30
2019-02-11T07:18:38.572Z,4.20
2019-02-11T07:19:38.750Z,4.24
2019-02-11T07:20:38.935Z,4.37
2019-02-11T07:21:39.119Z,4.44
2019-02-11T07:22:39.304Z,4.34
2019-02-11T07:23:39.486Z,4.41
2019-02-11T07:24:39.668Z,4.41
2019-02-11T07:25:39.845Z,4.48
2019-02-11T07:26:40.025Z,4.34
2019-02-11T07:27:40.211Z,4.50
2019-02-11T07:28:40.398Z,4.50
2019-02-11T07:29:40.577Z,4.45
2019-02-11T07:30:40.763Z,4.72
2019-02-11T07:31:40.937Z,4.66
2019-02-11T07:32:41.122Z,4.67
2019-02-11T07:33:41.301Z,4.73
2019-02-11T07:34:41.481Z,4.82
2019-02-11T07:35:41.662Z,4.92
2019-02-11T07:36:41.857Z,4.97
2019-02-11T07:37:42.050Z,5.03
2019-02-11T07:38:42.216Z,4.96
2019-02-11T07:39:42.398Z,4.84
2019-02-11T07:40:42.585Z,4.78
2019-02-11T07:41:42.765Z,4.66
2019-02-11T07:42:42.944Z,4.70
2019-02-11T07:43:43.125Z,4.78
2019-02-11T07:44:43.315Z,4.94
2019-02-11T07:45:43.495Z,4.88
2019-02-11T07:46:43.674Z,4.99
2019-02-11T07:47:43.849Z,5.07
2019-02-11T07:48:44.044Z,5.07
2019-02-11T07:49:44.227Z,5.25
2019-02-11T07:50:44.396Z,5.18
2019-02-11T07:51:44.578Z,5.13
2019-02-11T07:52:44.779Z,5.20
2019-02-11T07:53:44.962Z,5.21
2019-02-11T07:54:45.143Z,5.09
2019-02-11T07:55:45.368Z,5.22
2019-02-11T07:56:45.515Z,5.25
2019-02-11T07:57:45.697Z,5.39
2019-02-11T07:58:45.880Z,5.53
2019-02-11T07:59:46.115Z,5.68
2019-02-11T08:00:46.242Z,5.79
2019-02-11T08:01:46.423Z,6.11
2019-02-11T08:02:46.605Z,6.18
2019-02-11T08:03:46.789Z,6.22
2019-02-11T08:04:46.970Z,6.71
2019-02-11T08:05:47.156Z,6.36
2019-02-11T08:06:47.333Z,6.25
2019-02-11T08:07:47.513Z,6.36
2019-02-11T08:08:47.690Z,6.48
2019-02-11T08:09:47.877Z,7.07
2019-02-11T08:10:48.060Z,7.35
2019-02-11T08:11:48.249Z,7.71
2019-02-11T08:12:48.435Z,8.16
2019-02-11T08:13:48.621Z,8.48
2019-02-11T08:14:48.806Z,7.97
2019-02-11T08:15:48.999Z,8.15
2019-02-11T08:16:49.182Z,8.65
2019-02-11T08:17:49.368Z,7.95
2019-02-11T08:18:49.553Z,8.12
2019-02-11T08:19:50.063Z,8.33
2019-02-11T08:20:49.920Z,8.22
2019-02-11T08:21:50.115Z,8.48
2019-02-11T08:22:50.300Z,8.01
2019-02-11T08:23:50.484Z,7.90
2019-02-11T08:24:50.673Z,8.11
2019-02-11T08:25:50.861Z,8.08
2019-02-11T08:26:51.355Z,8.00
2019-02-11T08:27:51.282Z,7.93
2019-02-11T08:28:51.475Z,7.53
2019-02-11T08:29:51.664Z,7.60
2019-02-11T08:30:51.863Z,7.75
2019-02-11T08:31:52.052Z,7.69
2019-02-11T08:32:52.233Z,7.75
2019-02-11T08:33:52.431Z,7.79
2019-02-11T08:34:52.624Z,8.26
2019-02-11T08:35:52.818Z,8.40
2019-02-11T08:36:53.014Z,8.41
2019-02-11T08:37:53.195Z,8.47
2019-02-11T08:38:53.390Z,8.25
2019-02-11T08:39:53.578Z,8.94
2019-02-11T08:40:53.758Z,9.60
2019-02-11T08:41:53.948Z,8.86
2019-02-11T08:42:54.135Z,8.53
2019-02-11T08:43:54.324Z,8.36
2019-02-11T08:44:54.514Z,8.61
2019-02-11T08:45:54.707Z,9.69
2019-02-11T08:46:54.919Z,9.65
2019-02-11T08:47:55.089Z,10.84
2019-02-11T08:48:55.283Z,11.33
2019-02-11T08:49:55.480Z,12.04
2019-02-11T08:50:55.663Z,11.96
2019-02-11T08:51:55.856Z,12.64
2019-02-11T08:52:56.046Z,11.67
2019-02-11T08:53:56.240Z,11.44
2019-02-11T08:54:56.429Z,11.55
2019-02-11T08:55:56.618Z,10.85
2019-02-11T08:56:57.506Z,10.25
2019-02-11T08:57:57.009Z,9.58
2019-02-11T08:58:57.193Z,8.91
2019-02-11T08:59:57.382Z,8.50
2019-02-11T09:00:57.579Z,8.33
2019-02-11T09:01:57.762Z,7.75
2019-02-11T09:02:57.950Z,7.35
2019-02-11T09:03:58.143Z,7.23
2019-02-11T09:04:58.330Z,7.05
2019-02-11T09:05:58.518Z,7.05
2019-02-11T09:06:58.708Z,6.94
2019-02-11T09:07:58.899Z,6.87
2019-02-11T09:08:59.089Z,6.84
2019-02-11T09:09:59.279Z,6.70
2019-02-11T09:10:59.464Z,6.58
2019-02-11T09:11:59.653Z,6.36
2019-02-11T09:12:59.841Z,6.37
2019-02-11T09:14:00.023Z,6.48
2019-02-11T09:15:00.302Z,6.36
2019-02-11T09:16:00.395Z,6.48
2019-02-11T09:17:00.579Z,6.34
2019-02-11T09:18:00.781Z,6.06
2019-02-11T09:19:00.969Z,6.18
2019-02-11T09:20:01.154Z,6.12
2019-02-11T09:21:01.338Z,6.22
2019-02-11T09:22:07.275Z,6.19
2019-02-11T09:23:01.712Z,6.31
2019-02-11T09:24:01.900Z,6.18
2019-02-11T09:25:02.094Z,6.06
2019-02-11T09:26:02.278Z,6.03
2019-02-11T09:27:02.462Z,6.08
2019-02-11T09:28:02.640Z,5.99
2019-02-11T09:29:02.819Z,5.96
2019-02-11T09:30:03.001Z,6.00
2019-02-11T09:31:03.194Z,5.89
2019-02-11T09:32:03.377Z,5.97
2019-02-11T09:33:03.570Z,6.00
2019-02-11T09:34:03.787Z,6.08
2019-02-11T09:35:03.983Z,6.09
2019-02-11T09:36:04.161Z,6.17
2019-02-11T09:37:04.343Z,6.09
2019-02-11T09:38:04.522Z,6.15
2019-02-11T09:39:04.708Z,6.27
2019-02-11T09:40:04.895Z,6.19
2019-02-11T09:41:05.080Z,6.08
2019-02-11T09:42:05.272Z,6.03
2019-02-11T09:43:05.447Z,5.76
2019-02-11T09:44:05.630Z,5.85
2019-02-11T09:45:05.816Z,5.82
2019-02-11T09:46:06.016Z,5.86
2019-02-11T09:47:06.183Z,5.82
2019-02-11T09:48:06.494Z,5.89
2019-02-11T09:49:06.558Z,5.79
2019-02-11T09:50:06.743Z,5.83
2019-02-11T09:51:06.922Z,5.83
2019-02-11T09:52:07.105Z,5.86
2019-02-11T09:53:07.299Z,5.86
2019-02-11T09:54:07.479Z,5.91
2019-02-11T09:55:07.661Z,5.79
2019-02-11T09:56:07.839Z,5.83
2019-02-11T09:57:08.023Z,5.97
2019-02-11T09:58:08.209Z,6.04
2019-02-11T09:59:08.406Z,5.99
2019-02-11T10:00:08.582Z,6.12
2019-02-11T10:01:08.775Z,6.11
2019-02-11T10:02:08.963Z,6.01
2019-02-11T10:03:09.145Z,5.96
2019-02-11T10:04:09.334Z,6.03
2019-02-11T10:05:09.507Z,6.04
2019-02-11T10:06:09.710Z,6.00
2019-02-11T10:07:09.873Z,6.08
2019-02-11T10:08:10.057Z,6.17
2019-02-11T10:09:10.242Z,6.08
2019-02-11T10:10:10.421Z,6.27
2019-02-11T10:11:10.622Z,6.06
2019-02-11T10:12:10.782Z,6.22
2019-02-11T10:13:10.967Z,6.28
2019-02-11T10:14:11.155Z,6.52
2019-02-11T10:15:11.342Z,6.54
2019-02-11T10:16:12.731Z,6.52
2019-02-11T10:17:11.708Z,6.66
2019-02-11T10:18:11.898Z,6.56
2019-02-11T10:19:12.079Z,6.66
2019-02-11T10:20:12.267Z,6.56
2019-02-11T10:21:12.450Z,6.70
2019-02-11T10:22:12.637Z,6.66
2019-02-11T10:23:12.824Z,6.69
2019-02-11T10:24:13.000Z,6.66
2019-02-11T10:25:13.188Z,6.61
2019-02-11T10:26:13.378Z,6.43
2019-02-11T10:27:13.561Z,6.51
2019-02-11T10:28:13.768Z,6.52
2019-02-11T10:29:13.953Z,6.52
2019-02-11T10:30:14.137Z,6.48
2019-02-11T10:31:14.330Z,6.49
2019-02-11T10:32:14.553Z,6.33
2019-02-11T10:33:14.688Z,6.34
2019-02-11T10:35:57.563Z,6.44
2019-02-11T10:36:57.744Z,6.61
2019-02-11T10:37:57.930Z,6.80
2019-02-11T10:38:58.109Z,6.87
2019-02-11T10:39:58.288Z,6.89
2019-02-11T10:40:58.473Z,6.87
2019-02-11T10:41:58.654Z,6.64
2019-02-11T10:42:58.842Z,6.58
2019-02-11T10:43:59.021Z,6.64
2019-02-11T10:44:59.205Z,6.48
2019-02-11T10:45:59.391Z,6.43
2019-02-11T10:46:59.576Z,6.46
2019-02-11T10:47:59.764Z,6.48
2019-02-11T10:48:59.946Z,6.49
2019-02-11T10:50:00.240Z,6.66
2019-02-11T10:51:00.313Z,6.66
2019-02-11T10:52:00.493Z,6.70
2019-02-11T10:53:00.675Z,6.81
2019-02-11T10:54:00.861Z,6.85
2019-02-11T10:55:01.032Z,6.97
2019-02-11T10:56:01.211Z,6.95
2019-02-11T10:57:01.402Z,6.94
2019-02-11T10:58:01.583Z,6.85
2019-02-11T10:59:01.771Z,6.92
2019-02-11T11:00:01.948Z,7.21
2019-02-11T11:01:02.133Z,7.35
2019-02-11T11:02:02.324Z,7.57
2019-02-11T11:03:02.501Z,7.57
2019-02-11T11:04:02.682Z,7.63
2019-02-11T11:05:02.861Z,7.55
2019-02-11T11:06:03.050Z,7.55
2019-02-11T11:07:03.242Z,7.40
2019-02-11T11:08:03.436Z,7.32
2019-02-11T11:09:04.661Z,7.27
2019-02-11T11:10:03.805Z,7.35
2019-02-11T11:11:03.995Z,7.25
2019-02-11T11:12:04.182Z,7.16
2019-02-11T11:13:04.362Z,7.27
2019-02-11T11:14:04.562Z,7.25
2019-02-11T11:15:04.737Z,7.23
2019-02-11T11:16:04.923Z,7.16
2019-02-11T11:17:05.101Z,7.15
2019-02-11T11:18:05.284Z,7.10
2019-02-11T11:19:05.468Z,7.09
2019-02-11T11:20:05.649Z,7.02
2019-02-11T11:21:05.838Z,7.02
2019-02-11T11:22:06.019Z,6.87
2019-02-11T11:23:06.203Z,6.97
2019-02-11T11:24:06.395Z,7.03
2019-02-11T11:25:06.588Z,7.10
2019-02-11T11:26:06.778Z,7.17
2019-02-11T11:27:06.961Z,7.27
2019-02-11T11:28:07.141Z,7.43
2019-02-11T11:29:07.323Z,7.34
2019-02-11T11:30:07.520Z,7.32
2019-02-11T11:31:07.703Z,7.27
2019-02-11T11:32:07.900Z,7.28
2019-02-11T11:33:08.078Z,7.60
2019-02-11T11:34:08.258Z,7.98
2019-02-11T11:35:08.440Z,8.02
2019-02-11T11:36:08.630Z,8.86
2019-02-11T11:37:08.806Z,9.65
2019-02-11T11:38:08.989Z,9.97
2019-02-11T11:39:09.166Z,10.47
2019-02-11T11:40:09.359Z,10.27
2019-02-11T11:41:09.552Z,10.66
2019-02-11T11:42:09.741Z,10.48
2019-02-11T11:43:09.946Z,11.35
2019-02-11T11:44:10.134Z,12.07
2019-02-11T11:45:10.319Z,11.70
2019-02-11T11:46:10.508Z,11.73
2019-02-11T11:47:10.692Z,11.42
2019-02-11T11:48:10.883Z,10.92
2019-02-11T11:49:11.087Z,10.61
2019-02-11T11:50:11.283Z,10.33
2019-02-11T11:51:11.482Z,9.97
2019-02-11T11:52:11.659Z,9.33
2019-02-11T11:53:11.842Z,9.23
2019-02-11T11:54:12.035Z,9.24
2019-02-11T11:55:12.224Z,9.15
2019-02-11T11:56:12.418Z,9.13
2019-02-11T11:57:12.612Z,8.92
2019-02-11T11:58:12.815Z,8.81
2019-02-11T11:59:12.982Z,8.61
2019-02-11T12:00:13.166Z,8.48
2019-02-11T12:01:13.357Z,8.34
2019-02-11T12:02:16.169Z,8.16
2019-02-11T12:03:13.742Z,8.18
2019-02-11T12:04:13.925Z,8.08
2019-02-11T12:05:14.134Z,8.00
2019-02-11T12:06:14.293Z,8.05
2019-02-11T12:07:14.486Z,7.80
2019-02-11T12:08:14.679Z,7.71
2019-02-11T12:09:14.883Z,7.55
2019-02-11T12:10:15.082Z,7.72
2019-02-11T12:11:15.303Z,7.52
2019-02-11T12:12:15.429Z,7.55
2019-02-11T12:13:22.481Z,7.63
2019-02-11T12:14:15.789Z,7.67
2019-02-11T12:15:15.993Z,7.69
2019-02-11T12:16:16.175Z,7.55
2019-02-11T12:17:16.356Z,7.63
2019-02-11T12:18:16.546Z,7.63
2019-02-11T12:19:16.722Z,7.55
2019-02-11T12:20:16.926Z,7.57
2019-02-11T12:21:17.109Z,7.50
2019-02-11T12:22:17.280Z,7.55
2019-02-11T12:23:17.473Z,7.67
2019-02-11T12:24:17.650Z,7.67
2019-02-11T12:25:17.853Z,7.67
2019-02-11T12:26:21.290Z,7.53
2019-02-11T12:27:18.211Z,7.48
2019-02-11T12:28:18.399Z,7.57
2019-02-11T12:29:18.585Z,7.71
2019-02-11T12:30:18.776Z,7.71
2019-02-11T12:31:18.990Z,7.63
2019-02-11T12:32:19.191Z,7.45
2019-02-11T12:33:19.373Z,7.40
2019-02-11T12:34:19.559Z,7.24
2019-02-11T12:35:19.742Z,7.13
2019-02-11T12:36:19.931Z,7.09
2019-02-11T12:37:20.126Z,7.15
2019-02-11T12:38:20.292Z,7.06
2019-02-11T12:39:20.495Z,7.10
2019-02-11T12:40:20.688Z,7.17
2019-02-11T12:41:20.848Z,7.02
2019-02-11T12:42:21.030Z,6.94
2019-02-11T12:43:21.229Z,6.97
2019-02-11T12:44:21.399Z,6.89
2019-02-11T12:45:21.592Z,6.85
2019-02-11T12:46:21.771Z,7.09
2019-02-11T12:47:21.966Z,6.98
2019-02-11T12:48:22.150Z,7.06
2019-02-11T12:49:22.326Z,7.03
2019-02-11T12:50:22.520Z,7.05
2019-02-11T12:51:22.702Z,6.98
2019-02-11T12:52:22.884Z,7.05
2019-02-11T12:53:23.071Z,7.09
2019-02-11T12:54:23.259Z,6.89
2019-02-11T12:55:23.439Z,6.97
2019-02-11T12:56:23.630Z,6.97
2019-02-11T12:57:23.807Z,6.99
2019-02-11T12:58:23.988Z,7.07
2019-02-11T12:59:24.167Z,6.97
2019-02-11T13:00:24.347Z,7.05
2019-02-11T13:01:24.543Z,7.05
2019-02-11T13:02:24.716Z,6.91
2019-02-11T13:03:24.910Z,6.87
2019-02-11T13:04:25.089Z,6.95
2019-02-11T13:05:43.498Z,6.92
2019-02-11T13:06:25.473Z,6.87
2019-02-11T13:07:25.660Z,7.02
2019-02-11T13:08:25.853Z,6.89
2019-02-11T13:09:26.069Z,6.94
2019-02-11T13:10:26.208Z,6.84
2019-02-11T13:11:26.390Z,6.98
2019-02-11T13:12:26.572Z,7.03
2019-02-11T13:13:26.762Z,7.12
2019-02-11T13:14:26.951Z,7.15
2019-02-11T13:15:56.765Z,7.12
2019-02-11T13:16:27.315Z,7.17
2019-02-11T13:17:34.140Z,7.02
2019-02-11T13:18:28.005Z,7.09
2019-02-11T13:19:27.892Z,7.17
2019-02-11T13:20:28.088Z,7.31
2019-02-11T13:21:28.257Z,7.30